Time;durP1;ratioP1;P1;durP2;ratioP2;P2;SDS_P1;SDS_P2;PMS_P1;PMS_P2;Temp;Humidity;BMP_temperature;BMP_pressure;BME280_temperature;BME280_humidity;BME280_pressure;Samples;Min_cycle;Max_cycle;Signal;HPM_P1;HPM_P2
2022/04/14 00:01:33;;;;;;;6.43;1.98;;;13.30;99.90;;;;;;5083334;28;20023;-62
2022/04/14 00:03:59;;;;;;;7.32;2.28;;;13.40;99.90;;;;;;5067925;28;20020;-62
2022/04/14 00:06:24;;;;;;;5.95;1.85;;;13.40;99.90;;;;;;5080549;28;20020;-62
2022/04/14 00:08:52;;;;;;;4.63;1.70;;;13.30;99.90;;;;;;5086269;28;20435;-62
2022/04/14 00:11:18;;;;;;;4.00;1.45;;;13.20;99.90;;;;;;5079263;28;20050;-62
2022/04/14 00:13:43;;;;;;;4.45;1.63;;;13.20;99.90;;;;;;5081213;28;20028;-62
2022/04/14 00:16:09;;;;;;;3.63;1.42;;;13.10;99.90;;;;;;5075701;28;20031;-62
2022/04/14 00:18:35;;;;;;;3.42;1.15;;;13.00;99.90;;;;;;5084094;28;20113;-62
2022/04/14 00:21:00;;;;;;;5.53;1.63;;;13.00;99.90;;;;;;5078040;28;20495;-62
2022/04/14 00:23:26;;;;;;;6.20;1.63;;;;;;;;;;5083251;28;20029;-62
2022/04/14 00:25:52;;;;;;;4.80;1.50;;;12.70;99.90;;;;;;5084592;28;20468;-62
2022/04/14 00:28:18;;;;;;;3.90;1.35;;;12.60;99.90;;;;;;5082978;28;20056;-62
2022/04/14 00:30:43;;;;;;;4.45;1.33;;;12.80;99.90;;;;;;5082856;28;20473;-62
2022/04/14 00:33:09;;;;;;;6.78;1.88;;;12.90;99.90;;;;;;5075563;28;20077;-62
2022/04/14 00:35:34;;;;;;;6.28;1.88;;;12.80;99.90;;;;;;5077758;28;20028;-63
2022/04/14 00:38:00;;;;;;;6.10;2.10;;;12.70;99.90;;;;;;5089298;28;20020;-63
2022/04/14 00:40:26;;;;;;;4.60;1.60;;;12.50;99.90;;;;;;5065954;28;20535;-63
2022/04/14 00:42:51;;;;;;;6.97;2.10;;;12.50;99.90;;;;;;5057771;28;20169;-63
2022/04/14 00:45:17;;;;;;;4.43;1.70;;;12.80;99.90;;;;;;5078162;28;20020;-63
2022/04/14 00:47:43;;;;;;;5.80;1.95;;;12.60;99.90;;;;;;5065652;28;20044;-62
2022/04/14 00:50:09;;;;;;;6.95;2.08;;;12.50;99.90;;;;;;5081748;28;20024;-62
2022/04/14 00:52:34;;;;;;;6.78;2.25;;;12.40;99.90;;;;;;5078612;28;20438;-62
2022/04/14 00:55:00;;;;;;;6.40;2.10;;;12.40;99.90;;;;;;5059328;28;20024;-62
2022/04/14 00:57:26;;;;;;;6.90;2.00;;;12.30;99.90;;;;;;5080245;28;20039;-62
2022/04/14 00:59:51;;;;;;;9.50;2.60;;;12.40;99.90;;;;;;5085764;28;20027;-62
2022/04/14 01:02:17;;;;;;;11.32;2.55;;;12.30;99.90;;;;;;5077800;28;20530;-62
2022/04/14 01:04:44;;;;;;;7.07;1.90;;;12.40;99.90;;;;;;5073503;28;20031;-62
2022/04/14 01:07:09;;;;;;;4.93;1.60;;;12.20;99.90;;;;;;5078610;28;20020;-62
2022/04/14 01:09:36;;;;;;;6.40;1.67;;;12.10;99.90;;;;;;5061158;28;20120;-62
2022/04/14 01:12:03;;;;;;;4.55;1.65;;;12.10;99.90;;;;;;5078161;28;20120;-63
2022/04/14 01:14:34;;;;;;;5.18;1.77;;;12.10;99.90;;;;;;5076382;28;20023;-63
2022/04/14 01:17:02;;;;;;;6.45;2.13;;;12.10;99.90;;;;;;5078914;28;20501;-63
2022/04/14 01:19:28;;;;;;;7.47;2.78;;;12.20;99.90;;;;;;5077111;28;20020;-63
2022/04/14 01:21:57;;;;;;;7.75;2.60;;;12.20;99.90;;;;;;5071358;28;20391;-63
2022/04/14 01:24:23;;;;;;;8.60;2.72;;;12.10;99.90;;;;;;5077514;28;20024;-63
2022/04/14 01:26:49;;;;;;;5.97;2.08;;;12.20;99.90;;;;;;5083078;28;20407;-63
2022/04/14 01:29:25;;;;;;;6.15;2.30;;;12.20;99.90;;;;;;5077209;28;20453;-63
2022/04/14 01:31:52;;;;;;;6.03;2.17;;;12.30;99.90;;;;;;5081526;28;20028;-63
2022/04/14 01:34:18;;;;;;;10.43;2.47;;;12.30;99.90;;;;;;5081647;28;20033;-63
2022/04/14 01:36:44;;;;;;;6.28;2.15;;;12.30;99.90;;;;;;5082899;28;20051;-63
2022/04/14 01:39:11;;;;;;;5.38;1.85;;;12.20;99.90;;;;;;5067849;28;20016;-63
2022/04/14 01:41:38;;;;;;;6.68;2.22;;;12.10;99.90;;;;;;5077022;28;20020;-63
2022/04/14 01:44:04;;;;;;;6.03;1.90;;;12.10;99.90;;;;;;5076486;28;20373;-63
2022/04/14 01:46:30;;;;;;;8.00;2.22;;;12.10;99.90;;;;;;5083432;28;20027;-63
2022/04/14 01:48:55;;;;;;;7.72;2.28;;;12.30;99.90;;;;;;5083544;28;20028;-63
2022/04/14 01:51:21;;;;;;;8.30;2.20;;;12.20;99.90;;;;;;5082976;28;20070;-63
2022/04/14 01:53:46;;;;;;;8.13;2.67;;;12.10;99.90;;;;;;5079136;28;20090;-63
2022/04/14 01:56:12;;;;;;;6.68;2.15;;;12.00;99.90;;;;;;5062773;28;20440;-63
2022/04/14 01:58:38;;;;;;;7.22;2.28;;;12.00;99.90;;;;;;5070221;28;20074;-63
2022/04/14 02:01:03;;;;;;;6.75;2.28;;;12.00;99.90;;;;;;5083289;28;20023;-62
2022/04/14 02:03:29;;;;;;;7.45;2.55;;;12.00;99.90;;;;;;5077276;28;20016;-62
2022/04/14 02:05:54;;;;;;;8.20;2.60;;;12.00;99.90;;;;;;5080077;28;20444;-62
2022/04/14 02:08:21;;;;;;;7.38;2.38;;;12.10;99.90;;;;;;5080223;28;20032;-63
2022/04/14 02:10:46;;;;;;;7.45;2.72;;;12.10;99.90;;;;;;5078921;28;20107;-63
2022/04/14 02:13:12;;;;;;;7.55;2.38;;;11.90;99.90;;;;;;5083937;28;20110;-63
2022/04/14 02:15:37;;;;;;;6.05;2.13;;;12.10;99.90;;;;;;5083194;28;20054;-63
2022/04/14 02:18:03;;;;;;;9.63;2.42;;;12.20;99.90;;;;;;5082749;28;20055;-63
2022/04/14 02:20:29;;;;;;;12.13;2.85;;;12.40;99.90;;;;;;5081394;28;20039;-63
2022/04/14 02:22:54;;;;;;;5.18;2.13;;;12.50;99.90;;;;;;5083905;28;20617;-63
2022/04/14 02:25:20;;;;;;;8.80;2.38;;;12.30;99.90;;;;;;5085416;28;20028;-63
2022/04/14 02:27:46;;;;;;;9.63;3.08;;;12.00;99.90;;;;;;5079258;28;20049;-63
2022/04/14 02:30:12;;;;;;;9.23;3.00;;;12.10;99.90;;;;;;5082687;28;20028;-63
2022/04/14 02:32:38;;;;;;;7.25;2.72;;;12.20;99.90;;;;;;5084029;28;20021;-63
2022/04/14 02:35:04;;;;;;;9.45;3.28;;;12.10;99.90;;;;;;5086020;28;20028;-63
2022/04/14 02:37:30;;;;;;;10.70;2.78;;;12.10;99.90;;;;;;5084733;28;20032;-63
2022/04/14 02:39:56;;;;;;;8.15;2.45;;;12.00;99.90;;;;;;5079514;28;20056;-63
2022/04/14 02:42:21;;;;;;;8.32;2.72;;;11.90;99.90;;;;;;5084202;28;20120;-63
2022/04/14 02:44:47;;;;;;;10.20;2.97;;;12.00;99.90;;;;;;5066672;28;20024;-63
2022/04/14 02:47:12;;;;;;;8.68;3.17;;;11.90;99.90;;;;;;5085284;28;20024;-63
2022/04/14 02:49:38;;;;;;;10.23;2.85;;;11.90;99.90;;;;;;5080257;28;20049;-63
2022/04/14 02:52:04;;;;;;;8.43;2.72;;;11.80;99.90;;;;;;5086804;28;20039;-63
2022/04/14 02:54:37;;;;;;;8.82;3.00;;;12.00;99.90;;;;;;5077580;28;20017;-63
2022/04/14 02:57:09;;;;;;;8.13;2.90;;;12.00;99.90;;;;;;5083349;28;20032;-63
2022/04/14 02:59:36;;;;;;;6.80;2.40;;;12.00;99.90;;;;;;5088432;28;20035;-63
2022/04/14 03:02:03;;;;;;;11.50;3.05;;;12.00;99.90;;;;;;5081185;28;20033;-63
2022/04/14 03:04:29;;;;;;;7.93;2.50;;;12.10;99.90;;;;;;5082731;28;20024;-63
2022/04/14 03:06:55;;;;;;;9.52;3.40;;;12.10;99.90;;;;;;5084502;28;20063;-62
2022/04/14 03:09:21;;;;;;;11.95;3.22;;;12.10;99.90;;;;;;5069789;28;20056;-62
2022/04/14 03:11:46;;;;;;;10.02;3.47;;;12.30;99.90;;;;;;5074358;28;20051;-63
2022/04/14 03:14:12;;;;;;;15.68;3.58;;;12.30;99.90;;;;;;5083568;28;20016;-63
2022/04/14 03:16:38;;;;;;;10.27;3.33;;;12.10;99.90;;;;;;5083649;28;20028;-63
2022/04/14 03:19:03;;;;;;;12.02;3.30;;;12.10;99.90;;;;;;5077857;28;20016;-62
2022/04/14 03:21:29;;;;;;;10.20;3.33;;;12.30;99.90;;;;;;5081398;28;20464;-62
2022/04/14 03:23:54;;;;;;;12.05;3.50;;;12.30;99.90;;;;;;5079586;28;20040;-62
2022/04/14 03:26:20;;;;;;;12.35;4.22;;;12.20;99.90;;;;;;5085081;28;20104;-62
2022/04/14 03:28:45;;;;;;;11.80;3.72;;;12.00;99.90;;;;;;5082035;28;20040;-62
2022/04/14 03:31:11;;;;;;;12.68;3.97;;;11.90;99.90;;;;;;5085399;28;20048;-62
2022/04/14 03:33:37;;;;;;;12.68;4.22;;;12.10;99.90;;;;;;5087007;28;20028;-62
2022/04/14 03:36:03;;;;;;;11.70;3.70;;;12.10;99.90;;;;;;5080381;28;20070;-62
2022/04/14 03:38:28;;;;;;;12.20;3.95;;;11.90;99.90;;;;;;5080293;28;20028;-62
2022/04/14 03:40:54;;;;;;;9.25;3.25;;;11.70;99.90;;;;;;5083013;28;20017;-63
2022/04/14 03:43:20;;;;;;;10.32;3.53;;;12.00;99.90;;;;;;5082158;28;20024;-63
2022/04/14 03:45:46;;;;;;;9.32;3.83;;;11.90;99.90;;;;;;5082563;28;20491;-63
2022/04/14 03:48:11;;;;;;;12.32;3.47;;;11.90;99.90;;;;;;5065689;28;20039;-63
2022/04/14 03:50:37;;;;;;;12.35;3.67;;;11.90;99.90;;;;;;5067218;28;20458;-63
2022/04/14 03:53:03;;;;;;;13.27;4.22;;;12.00;99.90;;;;;;5079498;28;20052;-63
2022/04/14 03:55:28;;;;;;;9.75;3.97;;;11.80;99.90;;;;;;5068968;28;20052;-63
2022/04/14 03:57:54;;;;;;;13.75;4.57;;;11.80;99.90;;;;;;5082221;28;20036;-63
2022/04/14 04:00:19;;;;;;;10.52;3.92;;;11.80;99.90;;;;;;5085861;28;20016;-63
2022/04/14 04:02:45;;;;;;;12.88;3.08;;;11.80;99.90;;;;;;5085756;28;20391;-63
2022/04/14 04:05:11;;;;;;;11.43;3.35;;;11.80;99.90;;;;;;5084733;28;20095;-63
2022/04/14 04:07:37;;;;;;;9.55;3.75;;;11.70;99.90;;;;;;5082959;28;20405;-64
2022/04/14 04:10:04;;;;;;;12.52;3.80;;;11.60;99.90;;;;;;5081726;28;20032;-63
2022/04/14 04:12:30;;;;;;;9.57;3.38;;;11.80;99.90;;;;;;5081015;28;20027;-63
2022/04/14 04:14:55;;;;;;;12.98;5.10;;;11.90;99.90;;;;;;5083086;28;20463;-63
2022/04/14 04:17:21;;;;;;;10.68;3.53;;;11.90;99.90;;;;;;5081821;28;20030;-63
2022/04/14 04:19:47;;;;;;;12.20;3.97;;;11.80;99.90;;;;;;5082396;28;20034;-63
2022/04/14 04:22:13;;;;;;;16.77;4.07;;;11.90;99.90;;;;;;5080370;28;20488;-63
2022/04/14 04:24:38;;;;;;;13.15;4.03;;;11.80;99.90;;;;;;5079115;28;20020;-63
2022/04/14 04:27:05;;;;;;;11.02;3.97;;;11.70;99.90;;;;;;5062631;28;20369;-63
2022/04/14 04:29:31;;;;;;;9.57;3.67;;;11.60;99.90;;;;;;5071466;28;20028;-64
2022/04/14 04:31:57;;;;;;;9.38;3.55;;;11.70;99.90;;;;;;5085407;28;20044;-63
2022/04/14 04:34:23;;;;;;;13.27;4.75;;;11.70;99.90;;;;;;5059889;28;20111;-63
2022/04/14 04:36:48;;;;;;;13.02;4.40;;;11.60;99.90;;;;;;5082295;28;20073;-63
2022/04/14 04:39:15;;;;;;;12.65;3.95;;;11.50;99.90;;;;;;5078634;28;20027;-63
2022/04/14 04:41:40;;;;;;;16.98;4.90;;;11.50;99.90;;;;;;5083584;28;20093;-63
2022/04/14 04:44:06;;;;;;;12.02;4.05;;;11.40;99.90;;;;;;5077281;28;20059;-63
2022/04/14 04:46:33;;;;;;;13.68;4.82;;;11.50;99.90;;;;;;5067523;28;20020;-63
2022/04/14 04:48:59;;;;;;;16.70;5.40;;;11.50;99.90;;;;;;5081494;28;20021;-63
2022/04/14 04:51:25;;;;;;;14.25;5.03;;;11.70;99.90;;;;;;5081410;28;20398;-64
2022/04/14 04:53:51;;;;;;;12.60;4.75;;;11.80;99.90;;;;;;5074749;28;20503;-64
2022/04/14 04:56:18;;;;;;;25.33;6.05;;;11.90;99.90;;;;;;5079217;28;20111;-64
2022/04/14 04:58:44;;;;;;;13.13;5.15;;;11.90;99.90;;;;;;5081660;28;20020;-64
2022/04/14 05:01:09;;;;;;;13.48;5.13;;;11.90;99.90;;;;;;5083964;28;20027;-63
2022/04/14 05:03:35;;;;;;;11.18;4.50;;;11.90;99.90;;;;;;5076497;28;20016;-63
2022/04/14 05:06:01;;;;;;;15.95;4.90;;;11.90;99.90;;;;;;5074403;28;20056;-64
2022/04/14 05:08:27;;;;;;;11.02;4.63;;;11.70;99.90;;;;;;5083468;28;20039;-64
2022/04/14 05:10:52;;;;;;;15.02;5.72;;;11.70;99.90;;;;;;5075617;28;20044;-64
2022/04/14 05:13:18;;;;;;;15.38;4.47;;;11.80;99.90;;;;;;5076485;28;20664;-64
2022/04/14 05:15:44;;;;;;;15.13;4.90;;;11.60;99.90;;;;;;5083951;28;20060;-64
2022/04/14 05:18:09;;;;;;;16.05;5.07;;;11.50;99.90;;;;;;5075663;28;20032;-64
2022/04/14 05:20:35;;;;;;;15.18;5.40;;;11.70;99.90;;;;;;5077381;28;20028;-64
2022/04/14 05:23:02;;;;;;;15.98;5.50;;;11.60;99.90;;;;;;5078578;28;20028;-64
2022/04/14 05:25:28;;;;;;;14.98;5.32;;;11.60;99.90;;;;;;5084532;28;20488;-64
2022/04/14 05:27:54;;;;;;;16.27;5.70;;;11.70;99.90;;;;;;5076233;28;20109;-64
2022/04/14 05:30:20;;;;;;;18.02;6.05;;;11.70;99.90;;;;;;5077976;28;20032;-64
2022/04/14 05:32:45;;;;;;;12.07;5.57;;;11.90;99.90;;;;;;5074589;28;20071;-64
2022/04/14 05:35:11;;;;;;;13.65;5.63;;;12.00;99.90;;;;;;5065348;28;20028;-64
2022/04/14 05:37:37;;;;;;;14.25;6.63;;;12.10;99.90;;;;;;5077288;28;20484;-64
2022/04/14 05:40:04;;;;;;;19.83;5.47;;;12.10;99.90;;;;;;5067852;28;20044;-64
2022/04/14 05:42:29;;;;;;;18.35;5.75;;;12.20;99.90;;;;;;5058465;28;20055;-64
2022/04/14 05:44:55;;;;;;;16.42;6.03;;;12.20;99.90;;;;;;5080709;28;20060;-63
2022/04/14 05:47:23;;;;;;;16.77;6.35;;;12.30;99.90;;;;;;5083616;28;20013;-63
2022/04/14 05:49:50;;;;;;;17.20;5.65;;;12.30;99.90;;;;;;5064994;28;20225;-63
2022/04/14 05:52:16;;;;;;;19.13;6.43;;;12.40;99.90;;;;;;5079486;28;20016;-64
2022/04/14 05:54:41;;;;;;;19.75;6.85;;;12.40;99.90;;;;;;5083041;28;20475;-64
2022/04/14 05:57:07;;;;;;;19.50;7.25;;;12.40;99.90;;;;;;5065805;28;20031;-64
2022/04/14 05:59:33;;;;;;;18.50;5.95;;;12.50;99.90;;;;;;5087015;28;20089;-64
2022/04/14 06:01:58;;;;;;;18.92;6.60;;;12.50;99.90;;;;;;5085760;28;20483;-64
2022/04/14 06:04:24;;;;;;;22.92;7.70;;;12.70;99.90;;;;;;5060973;28;20020;-64
2022/04/14 06:06:49;;;;;;;19.17;7.50;;;12.60;99.90;;;;;;5085909;28;20039;-64
2022/04/14 06:09:15;;;;;;;16.02;6.65;;;12.60;99.90;;;;;;5066650;28;20040;-63
2022/04/14 06:11:40;;;;;;;18.92;6.78;;;12.80;99.90;;;;;;5083408;28;20024;-63
2022/04/14 06:14:06;;;;;;;21.27;6.43;;;12.80;99.90;;;;;;5079429;28;20032;-64
2022/04/14 06:16:32;;;;;;;20.52;7.05;;;12.80;99.90;;;;;;5079951;28;20028;-63
2022/04/14 06:18:57;;;;;;;24.70;6.80;;;12.90;99.90;;;;;;5070892;28;20016;-63
2022/04/14 06:21:23;;;;;;;22.35;6.20;;;13.00;99.90;;;;;;5085059;28;20066;-63
2022/04/14 06:23:49;;;;;;;20.50;7.23;;;13.00;99.90;;;;;;5081979;28;20384;-64
2022/04/14 06:26:16;;;;;;;22.10;7.78;;;13.00;99.90;;;;;;5085179;28;20540;-63
2022/04/14 06:28:42;;;;;;;25.55;7.75;;;13.10;99.90;;;;;;5087720;28;20483;-64
2022/04/14 06:31:08;;;;;;;19.75;6.47;;;13.00;99.90;;;;;;5083825;28;20032;-64
2022/04/14 06:33:33;;;;;;;25.13;7.53;;;13.10;99.90;;;;;;5078705;28;20031;-64
2022/04/14 06:35:59;;;;;;;22.45;7.80;;;13.20;99.90;;;;;;5079736;28;20173;-64
2022/04/14 06:38:28;;;;;;;22.98;7.95;;;13.20;99.90;;;;;;5067096;28;20976;-64
2022/04/14 06:40:54;;;;;;;18.88;7.10;;;13.30;99.90;;;;;;5077282;28;20111;-64
2022/04/14 06:43:20;;;;;;;24.08;8.13;;;13.30;99.90;;;;;;5073134;28;20165;-64
2022/04/14 06:45:47;;;;;;;20.40;7.25;;;13.30;99.90;;;;;;5065720;28;20039;-64
2022/04/14 06:48:13;;;;;;;22.40;6.63;;;13.20;99.90;;;;;;5076057;28;20052;-64
2022/04/14 06:50:40;;;;;;;19.13;7.20;;;13.10;99.90;;;;;;5078423;28;20032;-64
2022/04/14 06:53:06;;;;;;;25.08;8.00;;;13.30;99.90;;;;;;5076075;28;20556;-63
2022/04/14 06:55:32;;;;;;;26.60;8.57;;;13.30;99.90;;;;;;5058403;28;20040;-63
2022/04/14 06:57:58;;;;;;;23.08;8.75;;;13.30;99.90;;;;;;5079535;28;20028;-63
2022/04/14 07:00:24;;;;;;;22.45;8.80;;;13.40;99.90;;;;;;5076180;28;20032;-63
2022/04/14 07:02:52;;;;;;;20.40;7.90;;;13.50;99.90;;;;;;5054725;28;20035;-63
2022/04/14 07:05:18;;;;;;;25.02;9.25;;;13.60;99.90;;;;;;5070114;28;20028;-63
2022/04/14 07:07:44;;;;;;;28.15;9.15;;;13.70;99.90;;;;;;5085481;28;20031;-63
2022/04/14 07:10:12;;;;;;;29.55;9.75;;;13.80;99.90;;;;;;5085444;28;20028;-63
2022/04/14 07:12:38;;;;;;;27.58;9.38;;;13.90;99.90;;;;;;5071426;28;20115;-63
2022/04/14 07:15:04;;;;;;;28.52;9.30;;;14.00;99.90;;;;;;5085542;28;20265;-64
2022/04/14 07:17:30;;;;;;;27.23;9.57;;;14.30;99.90;;;;;;5080857;28;20112;-64
2022/04/14 07:19:57;;;;;;;35.90;11.10;;;14.50;99.90;;;;;;5080805;28;20135;-64
2022/04/14 07:22:22;;;;;;;32.65;10.23;;;14.60;99.90;;;;;;5081812;28;20027;-63
2022/04/14 07:24:49;;;;;;;24.83;8.95;;;14.80;99.90;;;;;;5062767;28;20036;-64
2022/04/14 07:27:20;;;;;;;27.10;9.43;;;14.90;99.90;;;;;;5061936;28;20416;-64
2022/04/14 07:29:46;;;;;;;30.33;10.98;;;14.90;99.90;;;;;;5085917;28;20484;-63
2022/04/14 07:32:13;;;;;;;30.92;9.43;;;15.00;99.90;;;;;;5084548;28;20035;-63
2022/04/14 07:34:38;;;;;;;34.22;10.40;;;15.00;99.90;;;;;;5060120;28;20613;-63
2022/04/14 07:37:04;;;;;;;28.27;9.88;;;15.20;99.90;;;;;;5081134;28;20024;-63
2022/04/14 07:39:30;;;;;;;31.35;8.95;;;15.20;99.90;;;;;;5082176;28;20048;-63
2022/04/14 07:41:55;;;;;;;23.95;8.60;;;14.90;99.90;;;;;;5087287;28;20573;-63
2022/04/14 07:44:21;;;;;;;36.00;12.15;;;15.10;99.90;;;;;;5081520;28;20423;-63
2022/04/14 07:46:47;;;;;;;27.13;8.70;;;14.90;99.90;;;;;;5087879;28;20026;-63
2022/04/14 07:49:12;;;;;;;31.58;9.77;;;15.10;99.90;;;;;;5083907;28;20028;-63
2022/04/14 07:51:40;;;;;;;27.77;8.55;;;15.10;99.90;;;;;;5079930;28;20506;-62
2022/04/14 07:54:06;;;;;;;32.00;11.50;;;15.10;99.90;;;;;;5064235;28;20074;-63
2022/04/14 07:56:32;;;;;;;33.38;11.27;;;15.20;99.90;;;;;;5083357;28;20426;-64
2022/04/14 07:58:59;;;;;;;34.63;10.18;;;15.40;99.90;;;;;;5085528;28;20070;-63
2022/04/14 08:01:25;;;;;;;28.55;11.07;;;15.60;99.90;;;;;;5084122;28;20384;-63
2022/04/14 08:03:50;;;;;;;32.28;11.20;;;15.60;99.90;;;;;;5069250;28;20036;-63
2022/04/14 08:06:16;;;;;;;28.17;9.48;;;15.70;99.90;;;;;;5081909;28;20032;-63
2022/04/14 08:08:42;;;;;;;36.50;11.52;;;15.50;99.90;;;;;;5081986;28;20023;-63
2022/04/14 08:11:09;;;;;;;43.35;11.93;;;15.30;99.90;;;;;;5080812;28;20070;-63
2022/04/14 08:13:37;;;;;;;26.33;9.20;;;15.20;99.90;;;;;;5062084;28;20859;-63
2022/04/14 08:16:09;;;;;;;23.67;8.13;;;15.00;99.90;;;;;;5076339;28;20464;-63
2022/04/14 08:18:39;;;;;;;23.60;7.55;;;14.80;99.90;;;;;;5078943;28;20027;-63
2022/04/14 08:21:05;;;;;;;27.63;9.50;;;14.60;99.90;;;;;;5080355;28;20417;-63
2022/04/14 08:23:31;;;;;;;31.08;9.70;;;14.60;99.90;;;;;;5075673;28;20032;-64
2022/04/14 08:25:57;;;;;;;36.90;10.98;;;14.60;99.90;;;;;;5082555;28;20040;-63
2022/04/14 08:28:23;;;;;;;36.83;11.57;;;14.50;99.90;;;;;;5081968;28;20085;-63
2022/04/14 08:31:02;;;;;;;31.83;11.52;;;14.80;99.90;;;;;;5043065;28;20888;-62
2022/04/14 08:33:28;;;;;;;29.55;10.65;;;15.00;99.90;;;;;;5051461;28;20470;-62
2022/04/14 08:35:54;;;;;;;30.88;10.27;;;15.40;99.90;;;;;;5026460;28;20120;-64
2022/04/14 08:38:21;;;;;;;30.52;10.32;;;16.00;99.90;;;;;;5027370;28;20030;-64
2022/04/14 08:40:56;;;;;;;30.85;10.35;;;16.30;99.90;;;;;;5027367;28;20439;-64
2022/04/14 08:43:31;;;;;;;21.05;8.60;;;16.80;99.90;;;;;;5026862;28;20018;-64
2022/04/14 08:45:58;;;;;;;23.75;8.73;;;17.70;99.90;;;;;;5023986;28;20551;-64
2022/04/14 08:48:24;;;;;;;33.53;10.20;;;17.80;99.90;;;;;;5026829;28;20037;-63
2022/04/14 08:50:50;;;;;;;31.80;10.50;;;17.20;99.90;;;;;;5022660;28;20040;-64
2022/04/14 08:53:18;;;;;;;31.88;9.90;;;17.00;99.90;;;;;;5026298;28;20025;-64
2022/04/14 08:55:45;;;;;;;27.98;9.13;;;17.70;99.90;;;;;;5025626;28;20048;-64
2022/04/14 08:58:15;;;;;;;25.33;8.90;;;18.20;99.90;;;;;;5025338;28;20049;-64
2022/04/14 09:00:41;;;;;;;32.45;7.93;;;18.70;99.90;;;;;;5028666;28;20045;-64
2022/04/14 09:03:06;;;;;;;23.23;7.63;;;19.20;99.90;;;;;;5015776;28;20104;-62
2022/04/14 09:05:32;;;;;;;26.45;10.02;;;19.60;99.90;;;;;;5025674;28;20037;-64
2022/04/14 09:07:58;;;;;;;20.92;8.25;;;20.30;99.90;;;;;;5023868;28;20029;-63
2022/04/14 09:10:23;;;;;;;25.92;9.50;;;20.50;99.90;;;;;;5026858;28;20431;-63
2022/04/14 09:12:49;;;;;;;27.80;9.20;;;19.80;99.90;;;;;;5026014;28;20521;-63
2022/04/14 09:15:16;;;;;;;32.70;10.55;;;20.00;99.90;;;;;;5026266;28;20104;-63
2022/04/14 09:17:42;;;;;;;23.08;8.35;;;20.20;99.90;;;;;;5026671;28;20014;-63
2022/04/14 09:20:37;;;;;;;21.98;7.97;;;20.60;99.90;;;;;;5024984;28;20037;-63
2022/04/14 09:23:15;;;;;;;24.20;8.30;;;20.80;99.90;;;;;;5023927;28;20033;-63
2022/04/14 09:25:42;;;;;;;27.38;8.05;;;21.20;99.90;;;;;;5022920;28;20029;-63
2022/04/14 09:28:13;;;;;;;24.73;8.38;;;20.80;99.90;;;;;;5021910;28;20036;-63
2022/04/14 09:30:39;;;;;;;25.15;9.63;;;21.80;99.90;;;;;;5028438;28;20069;-63
2022/04/14 09:33:13;;;;;;;26.73;7.72;;;21.00;99.90;;;;;;5028987;28;20026;-63
2022/04/14 09:35:39;;;;;;;16.77;6.03;;;21.00;99.90;;;;;;5017682;28;20367;-63
2022/04/14 09:38:13;;;;;;;22.48;7.07;;;21.10;99.90;;;;;;5023030;28;20037;-63
2022/04/14 09:40:39;;;;;;;27.02;9.23;;;21.00;99.90;;;;;;5019993;28;20053;-63
2022/04/14 09:43:05;;;;;;;21.02;8.00;;;21.30;99.90;;;;;;5012524;28;20069;-63
2022/04/14 09:45:33;;;;;;;19.53;7.17;;;22.00;99.90;;;;;;5012193;28;20060;-63
2022/04/14 09:48:07;;;;;;;17.33;7.20;;;22.40;98.90;;;;;;5013618;28;20084;-63
2022/04/14 09:50:35;;;;;;;20.17;8.30;;;21.50;99.90;;;;;;5009249;28;20109;-63
2022/04/14 09:53:01;;;;;;;12.27;5.28;;;22.00;99.70;;;;;;5012089;28;20366;-63
2022/04/14 09:55:27;;;;;;;16.98;7.07;;;22.20;98.60;;;;;;5011993;28;20030;-63
2022/04/14 09:58:10;;;;;;;19.08;8.13;;;22.30;98.60;;;;;;5009183;28;20097;-63
2022/04/14 10:00:38;;;;;;;25.73;8.52;;;21.00;99.90;;;;;;5011014;28;20478;-63
2022/04/14 10:03:21;;;;;;;21.38;8.70;;;21.50;99.90;;;;;;5011939;28;20042;-63
2022/04/14 10:05:58;;;;;;;21.85;7.07;;;20.70;99.90;;;;;;5010407;28;20095;-63
2022/04/14 10:08:24;;;;;;;15.68;5.25;;;20.50;99.90;;;;;;5010716;28;20042;-63
2022/04/14 10:11:04;;;;;;;17.70;7.43;;;20.80;99.90;;;;;;5014023;28;20037;-63
2022/04/14 10:13:39;;;;;;;;;;;21.30;98.80;;;;;;5008565;28;20022;-63
2022/04/14 10:16:07;;;;;;;18.45;6.85;;;21.20;98.50;;;;;;5009030;28;19951;-63
2022/04/14 10:18:33;;;;;;;20.45;7.70;;;21.40;97.80;;;;;;5011919;28;20084;-63
2022/04/14 10:20:59;;;;;;;16.85;5.97;;;20.40;99.20;;;;;;5009485;28;20096;-63
2022/04/14 10:23:27;;;;;;;17.55;6.80;;;20.30;99.90;;;;;;5011715;28;20104;-63
2022/04/14 10:25:54;;;;;;;14.90;5.75;;;21.10;98.40;;;;;;5007906;28;20036;-63
2022/04/14 10:28:24;;;;;;;15.95;5.70;;;21.50;97.50;;;;;;5011428;28;20473;-63
2022/04/14 10:30:58;;;;;;;14.32;6.75;;;21.10;98.00;;;;;;5012574;28;20045;-62
2022/04/14 10:33:24;;;;;;;12.32;4.47;;;20.90;97.10;;;;;;5012285;28;20522;-62
2022/04/14 10:35:51;;;;;;;11.35;4.03;;;21.60;97.00;;;;;;5019834;28;20042;-63
2022/04/14 10:38:31;;;;;;;11.70;4.38;;;21.20;95.50;;;;;;5007126;28;20045;-62
2022/04/14 10:41:12;;;;;;;14.23;5.50;;;20.00;98.10;;;;;;5008527;28;20057;-63
2022/04/14 10:43:41;;;;;;;14.10;4.85;;;19.40;99.00;;;;;;5006071;28;20038;-63
2022/04/14 10:46:07;;;;;;;13.07;5.00;;;19.30;99.60;;;;;;5006342;28;20018;-63
2022/04/14 10:48:39;;;;;;;14.25;5.13;;;19.80;98.50;;;;;;5010374;28;20028;-63
2022/04/14 10:51:24;;;;;;;13.27;5.28;;;20.00;99.10;;;;;;5005797;28;20126;-63
2022/04/14 10:54:03;;;;;;;10.82;4.07;;;20.60;98.00;;;;;;5007046;28;20026;-63
2022/04/14 10:56:37;;;;;;;13.15;5.43;;;21.50;95.50;;;;;;5005911;28;20576;-63
2022/04/14 10:59:32;;;;;;;16.48;4.95;;;22.90;93.70;;;;;;5007382;28;20477;-63
2022/04/14 11:02:04;;;;;;;11.20;4.63;;;24.00;92.20;;;;;;5006735;28;20034;-63
2022/04/14 11:04:31;;;;;;;10.32;4.50;;;24.70;90.70;;;;;;5003528;28;20030;-63
2022/04/14 11:07:16;;;;;;;13.18;5.57;;;23.50;90.00;;;;;;5004491;28;20517;-63
2022/04/14 11:09:46;;;;;;;10.70;4.50;;;23.50;90.70;;;;;;5005033;28;20018;-63
2022/04/14 11:12:27;;;;;;;17.35;5.80;;;22.10;90.50;;;;;;5007660;28;20106;-63
2022/04/14 11:15:04;;;;;;;15.88;5.85;;;21.50;92.20;;;;;;5005822;28;20034;-63
2022/04/14 11:20:14;;;;;;;15.73;5.78;;;21.70;93.60;;;;;;5007767;28;20041;-63
2022/04/14 11:23:08;;;;;;;16.15;6.45;;;22.40;91.80;;;;;;5008407;28;20037;-63
2022/04/14 11:25:41;;;;;;;16.70;6.90;;;21.70;92.40;;;;;;5005888;28;20467;-63
2022/04/14 11:28:33;;;;;;;16.95;6.28;;;21.40;92.70;;;;;;5003282;28;20113;-63
2022/04/14 11:31:12;;;;;;;24.58;6.25;;;23.10;91.30;;;;;;5010517;28;20498;-63
2022/04/14 11:33:37;;;;;;;17.63;6.97;;;23.90;90.40;;;;;;5007911;28;20524;-63
2022/04/14 11:36:17;;;;;;;14.70;5.97;;;24.20;88.30;;;;;;5009233;28;20015;-63
2022/04/14 11:39:05;;;;;;;16.42;6.45;;;23.70;89.80;;;;;;5005648;28;20030;-63
2022/04/14 11:41:39;;;;;;;19.00;6.57;;;22.70;90.20;;;;;;5004333;28;20034;-63
2022/04/14 11:44:11;;;;;;;15.93;6.45;;;22.60;90.40;;;;;;5005152;28;20017;-63
2022/04/14 11:46:39;;;;;;;20.20;8.25;;;21.90;91.90;;;;;;5002991;28;20045;-63
2022/04/14 11:49:07;;;;;;;19.92;7.00;;;21.60;92.90;;;;;;5006003;28;20026;-63
2022/04/14 11:51:39;;;;;;;17.15;6.43;;;21.50;92.30;;;;;;5012251;28;20022;-63
2022/04/14 11:54:05;;;;;;;16.50;5.90;;;21.50;92.30;;;;;;5007168;28;20044;-63
2022/04/14 11:56:30;;;;;;;15.05;5.90;;;21.20;91.70;;;;;;5019998;28;20026;-63
2022/04/14 11:58:56;;;;;;;14.65;5.97;;;20.80;92.90;;;;;;5009003;28;20446;-62
2022/04/14 12:01:22;;;;;;;12.68;4.97;;;21.20;92.40;;;;;;5006791;28;20034;-62
2022/04/14 12:03:47;;;;;;;13.90;5.78;;;21.20;92.30;;;;;;5007389;28;20501;-62
2022/04/14 12:06:16;;;;;;;19.38;7.95;;;21.10;92.80;;;;;;5018741;28;20486;-63
2022/04/14 12:08:42;;;;;;;14.95;6.25;;;19.90;94.10;;;;;;5017868;28;20169;-63
2022/04/14 12:11:17;;;;;;;15.23;6.03;;;19.80;94.40;;;;;;5011890;28;20406;-63
2022/04/14 12:13:43;;;;;;;15.48;5.93;;;19.40;94.10;;;;;;5006400;28;20021;-63
2022/04/14 12:16:10;;;;;;;12.82;4.97;;;19.50;93.60;;;;;;5010234;28;20022;-63
2022/04/14 12:18:38;;;;;;;13.02;5.40;;;20.90;93.90;;;;;;5007728;28;20078;-63
2022/04/14 12:21:04;;;;;;;11.25;4.45;;;21.70;91.00;;;;;;5006732;28;20022;-63
2022/04/14 12:23:31;;;;;;;11.98;4.07;;;22.20;90.10;;;;;;5007428;28;20361;-63
2022/04/14 12:25:58;;;;;;;11.50;5.10;;;22.80;89.20;;;;;;5003659;28;20022;-63
2022/04/14 12:28:24;;;;;;;11.98;5.20;;;23.10;88.70;;;;;;5003531;28;20054;-63
2022/04/14 12:30:50;;;;;;;11.27;4.53;;;22.70;89.30;;;;;;5009540;28;20053;-63
2022/04/14 12:33:27;;;;;;;11.68;4.80;;;22.80;89.10;;;;;;5008454;28;20456;-63
2022/04/14 12:36:04;;;;;;;9.85;3.47;;;24.30;87.50;;;;;;5007957;28;20036;-63
2022/04/14 12:38:29;;;;;;;10.23;3.63;;;24.90;82.10;;;;;;5006157;28;20026;-64
2022/04/14 12:41:03;;;;;;;9.60;4.30;;;24.50;81.00;;;;;;5003818;28;20037;-64
2022/04/14 12:43:41;;;;;;;12.18;5.32;;;24.70;81.10;;;;;;5007192;28;20769;-63